Time;durP1;ratioP1;P1;durP2;ratioP2;P2;SDS_P1;SDS_P2;PMS_P1;PMS_P2;Temp;Humidity;BMP_temperature;BMP_pressure;BME280_temperature;BME280_humidity;BME280_pressure;Samples;Min_cycle;Max_cycle;Signal;HPM_P1;HPM_P2
2021/06/15 00:00:21;;;;;;;9.48;6.00;;;26.80;70.30;;;;;;12122160;27;20067;-75
2021/06/15 00:06:09;;;;;;;11.07;6.03;;;26.80;70.20;;;;;;12135923;27;20261;-75
2021/06/15 00:11:56;;;;;;;7.20;4.53;;;26.70;70.60;;;;;;12143610;27;20047;-76
2021/06/15 00:17:44;;;;;;;6.43;4.03;;;26.70;71.20;;;;;;12132280;27;20056;-76
2021/06/15 00:23:32;;;;;;;6.13;4.32;;;26.60;71.30;;;;;;12125065;27;20055;-76
2021/06/15 00:29:19;;;;;;;6.05;3.80;;;26.50;71.80;;;;;;12175042;27;20039;-75
2021/06/15 00:35:06;;;;;;;7.57;4.10;;;26.50;72.20;;;;;;12127562;27;20047;-75
2021/06/15 00:40:54;;;;;;;7.35;3.75;;;26.40;72.00;;;;;;12110533;27;20564;-75
2021/06/15 00:46:41;;;;;;;11.25;3.70;;;26.40;71.80;;;;;;12166849;27;20042;-76
2021/06/15 00:52:28;;;;;;;7.47;3.70;;;26.30;73.00;;;;;;12157292;27;20059;-76
2021/06/15 00:58:16;;;;;;;7.65;4.30;;;26.30;71.70;;;;;;12176735;27;20047;-76
2021/06/15 07:30:12;;;;;;;17.73;5.50;;;24.30;78.20;;;;;;12119353;27;20872;-80
2021/06/15 07:35:59;;;;;;;13.88;5.30;;;24.90;77.70;;;;;;12063908;28;20071;-79
2021/06/15 07:41:46;;;;;;;17.20;4.78;;;25.40;76.00;;;;;;12068814;28;20057;-79
2021/06/15 07:47:35;;;;;;;12.63;4.97;;;25.70;75.00;;;;;;12068833;28;20122;-80
2021/06/15 07:53:22;;;;;;;13.88;4.68;;;25.90;74.30;;;;;;12073251;27;20102;-81
2021/06/15 07:59:09;;;;;;;9.50;4.75;;;26.10;74.70;;;;;;12075277;28;20063;-80
2021/06/15 08:04:57;;;;;;;9.85;5.53;;;26.30;73.90;;;;;;12074151;28;20059;-80
2021/06/15 08:10:44;;;;;;;7.68;4.88;;;26.50;72.40;;;;;;12069465;28;20060;-79
2021/06/15 08:16:31;;;;;;;10.85;5.38;;;26.70;72.40;;;;;;12076826;28;20044;-81
2021/06/15 08:22:19;;;;;;;11.02;5.22;;;26.80;71.50;;;;;;12050509;28;20067;-80
2021/06/15 08:28:08;;;;;;;14.77;5.90;;;26.90;70.90;;;;;;12101008;27;20056;-80
2021/06/15 08:33:55;;;;;;;12.60;5.13;;;27.00;70.70;;;;;;12118854;27;20048;-80
2021/06/15 08:39:43;;;;;;;8.52;5.10;;;27.00;70.80;;;;;;12098066;27;20067;-80
2021/06/15 08:45:30;;;;;;;10.95;5.32;;;27.10;71.00;;;;;;12082569;27;20048;-80
2021/06/15 08:51:19;;;;;;;18.63;5.35;;;27.10;70.70;;;;;;12072013;27;20087;-79
2021/06/15 08:57:09;;;;;;;12.55;4.80;;;26.90;70.70;;;;;;12084928;27;20139;-79
2021/06/15 09:51:21;;;;;;;9.30;4.75;;;27.20;65.60;;;;;;12030386;27;20381;-81
2021/06/15 09:57:09;;;;;;;14.32;5.05;;;27.20;67.60;;;;;;11992925;28;20109;-79
2021/06/15 10:02:58;;;;;;;10.18;4.80;;;27.20;68.20;;;;;;12017726;28;20078;-79
2021/06/15 10:08:46;;;;;;;9.95;4.65;;;27.40;68.50;;;;;;12021308;28;21691;-79
2021/06/15 10:14:37;;;;;;;7.20;4.18;;;27.40;65.90;;;;;;12019240;28;20056;-79
2021/06/15 10:20:25;;;;;;;12.20;4.00;;;27.50;66.40;;;;;;12012717;28;20084;-78
2021/06/15 10:26:14;;;;;;;8.32;3.53;;;27.40;64.90;;;;;;11967877;28;20054;-80
2021/06/15 10:32:11;;;;;;;6.22;4.15;;;27.50;64.50;;;;;;11994138;28;20073;-77
2021/06/15 10:37:58;;;;;;;8.57;4.15;;;27.60;63.70;;;;;;12001398;28;20041;-79
2021/06/15 10:43:46;;;;;;;6.00;3.42;;;27.90;62.10;;;;;;12017804;28;20061;-81
2021/06/15 10:49:57;;;;;;;6.15;3.60;;;28.20;62.30;;;;;;12017776;28;20245;-81
2021/06/15 10:55:46;;;;;;;7.38;3.70;;;28.40;60.60;;;;;;12013461;28;20051;-80
2021/06/15 11:01:37;;;;;;;5.28;3.45;;;28.50;59.70;;;;;;11992880;28;20053;-82
2021/06/15 11:07:34;;;;;;;10.23;3.75;;;28.70;59.80;;;;;;11971004;28;20114;-79
2021/06/15 11:13:40;;;;;;;6.60;3.17;;;28.70;58.80;;;;;;11988622;28;20507;-79
2021/06/15 11:25:48;;;;;;;4.97;2.90;;;29.00;59.20;;;;;;11989616;28;20049;-82
2021/06/15 11:31:38;;;;;;;8.70;3.80;;;28.90;59.70;;;;;;11983510;28;20042;-83
2021/06/15 11:37:28;;;;;;;5.40;3.60;;;28.90;61.90;;;;;;11990351;28;20044;-82
2021/06/15 11:43:18;;;;;;;4.97;3.80;;;28.90;62.10;;;;;;11982638;28;20060;-81
2021/06/15 11:49:10;;;;;;;8.77;4.03;;;28.90;64.00;;;;;;11981564;28;20055;-84
2021/06/15 11:54:59;;;;;;;11.27;4.65;;;28.80;64.00;;;;;;11984245;28;20052;-83
2021/06/15 12:00:48;;;;;;;7.95;3.60;;;28.90;62.70;;;;;;11980566;28;20072;-83
2021/06/15 12:06:35;;;;;;;10.73;4.22;;;28.90;62.70;;;;;;11986528;28;20059;-84
2021/06/15 12:12:23;;;;;;;7.13;4.45;;;29.20;62.40;;;;;;11969686;28;20057;-84
2021/06/15 12:18:13;;;;;;;9.57;3.88;;;29.40;59.80;;;;;;11976502;28;20452;-82
2021/06/15 12:24:03;;;;;;;9.43;3.95;;;29.50;60.30;;;;;;11985285;28;20063;-84
2021/06/15 12:29:51;;;;;;;8.15;3.80;;;29.70;60.40;;;;;;11949460;28;20578;-82
2021/06/15 12:35:39;;;;;;;6.63;3.60;;;29.70;60.10;;;;;;11971621;28;20176;-83
2021/06/15 12:41:26;;;;;;;9.88;3.95;;;29.70;59.60;;;;;;11986773;28;20052;-83
2021/06/15 12:47:16;;;;;;;5.93;3.88;;;29.90;59.50;;;;;;11990261;28;20056;-84
2021/06/15 12:53:06;;;;;;;6.03;3.67;;;29.90;59.60;;;;;;11988143;28;20061;-84
2021/06/15 12:58:55;;;;;;;6.40;3.67;;;30.10;58.90;;;;;;11955473;28;20057;-84
2021/06/15 13:04:48;;;;;;;4.85;3.67;;;30.20;58.10;;;;;;11989416;28;20052;-82
2021/06/15 13:10:39;;;;;;;5.82;3.42;;;30.20;57.70;;;;;;11985125;28;20056;-82
2021/06/15 13:16:44;;;;;;;4.78;3.42;;;30.20;57.30;;;;;;12010439;28;20045;-82
2021/06/15 13:22:37;;;;;;;6.18;3.20;;;30.20;57.10;;;;;;12032951;28;20045;-83
2021/06/15 13:28:25;;;;;;;5.22;3.20;;;30.40;56.30;;;;;;12030980;28;20064;-83
2021/06/15 13:34:13;;;;;;;6.13;3.60;;;30.70;55.40;;;;;;12030093;28;20117;-83
2021/06/15 13:40:01;;;;;;;5.15;2.70;;;30.80;57.50;;;;;;12033343;27;20079;-83
2021/06/15 13:45:50;;;;;;;6.05;3.17;;;30.90;55.50;;;;;;12029312;28;20044;-82
2021/06/15 13:51:37;;;;;;;4.60;2.80;;;30.80;55.10;;;;;;12026456;28;20052;-82
2021/06/15 13:57:26;;;;;;;7.35;2.92;;;30.90;55.20;;;;;;12029279;28;20058;-85
2021/06/15 14:03:13;;;;;;;5.60;3.33;;;31.10;55.00;;;;;;12035063;28;20045;-83
2021/06/15 14:09:00;;;;;;;7.85;3.10;;;31.40;54.30;;;;;;12031376;28;20430;-83
2021/06/15 14:14:49;;;;;;;3.33;2.90;;;31.60;54.70;;;;;;12029372;28;20061;-83
2021/06/15 14:20:36;;;;;;;7.95;3.10;;;31.80;53.40;;;;;;12032056;28;20060;-81
2021/06/15 14:26:25;;;;;;;6.78;2.97;;;31.80;54.70;;;;;;12026984;28;20051;-82
2021/06/15 14:32:13;;;;;;;4.40;2.67;;;32.00;53.70;;;;;;12028233;28;20052;-83
2021/06/15 14:38:02;;;;;;;3.47;2.95;;;32.10;54.00;;;;;;12032452;28;20048;-82
2021/06/15 14:43:49;;;;;;;3.15;2.72;;;32.10;53.70;;;;;;12042844;28;20058;-81
2021/06/15 14:49:38;;;;;;;7.55;3.05;;;32.10;53.30;;;;;;12039790;28;20063;-82
2021/06/15 14:55:25;;;;;;;9.27;2.70;;;32.00;54.00;;;;;;12038166;28;20045;-82
2021/06/15 15:01:11;;;;;;;7.68;3.17;;;32.20;52.90;;;;;;12047362;28;20060;-82
2021/06/15 15:07:02;;;;;;;5.47;2.70;;;32.60;53.40;;;;;;12040400;28;20048;-84
2021/06/15 15:12:49;;;;;;;6.97;2.95;;;32.80;52.70;;;;;;12036152;28;20534;-82
2021/06/15 15:18:36;;;;;;;4.20;3.15;;;33.00;52.70;;;;;;12034131;27;20084;-84
2021/06/15 15:24:24;;;;;;;6.25;2.92;;;33.00;51.70;;;;;;12039163;28;20056;-83
2021/06/15 15:30:16;;;;;;;9.98;3.40;;;33.10;51.70;;;;;;12035118;28;20104;-80
2021/06/15 15:36:03;;;;;;;4.57;3.13;;;33.70;52.50;;;;;;12027626;28;20057;-81
2021/06/15 15:41:51;;;;;;;5.32;3.10;;;34.40;51.20;;;;;;12031865;28;20060;-81
2021/06/15 15:47:39;;;;;;;5.00;2.95;;;35.50;50.40;;;;;;12036572;28;20067;-82
2021/06/15 15:53:26;;;;;;;5.43;2.95;;;36.30;48.00;;;;;;12032300;28;20048;-81
2021/06/15 15:59:15;;;;;;;2.55;2.35;;;37.10;47.30;;;;;;12028041;28;20082;-80
2021/06/15 16:05:02;;;;;;;5.07;2.55;;;38.00;46.90;;;;;;12033660;28;20373;-79
2021/06/15 16:10:49;;;;;;;3.92;2.92;;;38.60;44.70;;;;;;12030956;28;20056;-80
2021/06/15 16:16:37;;;;;;;3.70;2.92;;;38.50;45.00;;;;;;12028921;28;20049;-79
2021/06/15 16:22:25;;;;;;;7.63;2.97;;;38.80;44.10;;;;;;12026835;28;20102;-81
2021/06/15 16:28:15;;;;;;;5.65;2.50;;;39.40;42.30;;;;;;12024516;28;20136;-81
2021/06/15 16:34:04;;;;;;;6.95;2.17;;;39.70;42.80;;;;;;12029485;28;20052;-81
2021/06/15 16:39:51;;;;;;;4.75;2.60;;;39.90;42.20;;;;;;12020534;28;20057;-80
2021/06/15 16:45:38;;;;;;;3.45;2.30;;;40.70;41.00;;;;;;12021073;28;20384;-79
2021/06/15 16:51:26;;;;;;;6.93;2.63;;;41.30;40.60;;;;;;12023903;28;20057;-80
2021/06/15 16:57:14;;;;;;;9.70;2.80;;;41.80;39.90;;;;;;12026230;28;20041;-79
2021/06/15 17:03:03;;;;;;;7.05;2.78;;;42.10;40.00;;;;;;12012806;28;20060;-80
2021/06/15 17:08:51;;;;;;;8.07;3.25;;;42.60;39.10;;;;;;12013742;28;20052;-79
2021/06/15 17:14:40;;;;;;;3.60;3.13;;;42.80;38.00;;;;;;12021659;28;20060;-79
2021/06/15 17:20:27;;;;;;;4.05;2.92;;;43.40;38.10;;;;;;12023911;28;20047;-79
2021/06/15 17:26:15;;;;;;;3.33;2.58;;;42.90;37.80;;;;;;12020168;28;20056;-79
2021/06/15 17:32:02;;;;;;;2.45;2.10;;;43.10;37.10;;;;;;12025882;28;20052;-81
2021/06/15 17:37:50;;;;;;;3.78;2.60;;;43.30;36.50;;;;;;12025156;28;20060;-79
2021/06/15 17:43:39;;;;;;;3.38;2.38;;;43.60;36.90;;;;;;12018831;28;20063;-78
2021/06/15 17:49:26;;;;;;;4.88;2.40;;;43.60;36.80;;;;;;12011972;28;20090;-80
2021/06/15 17:55:14;;;;;;;2.95;2.47;;;43.50;36.20;;;;;;12014046;28;20053;-81
2021/06/15 18:01:05;;;;;;;3.45;2.35;;;43.30;36.70;;;;;;12026489;28;20052;-79
2021/06/15 18:07:02;;;;;;;6.78;2.45;;;43.10;37.20;;;;;;12026108;28;20115;-79
2021/06/15 18:12:52;;;;;;;2.85;2.15;;;42.60;38.00;;;;;;12042631;28;20162;-80
2021/06/15 18:18:41;;;;;;;3.63;2.10;;;41.90;39.00;;;;;;12028727;28;20563;-80
2021/06/15 18:24:28;;;;;;;3.42;2.35;;;41.50;39.10;;;;;;12021800;28;20049;-80
2021/06/15 18:30:17;;;;;;;4.47;2.15;;;41.60;39.40;;;;;;12027899;28;20048;-81
2021/06/15 18:36:06;;;;;;;3.13;2.28;;;41.60;39.60;;;;;;12026479;28;20048;-81
2021/06/15 18:41:53;;;;;;;3.67;2.45;;;41.50;40.30;;;;;;12036901;28;20252;-80
2021/06/15 18:47:41;;;;;;;14.30;2.40;;;41.20;40.10;;;;;;12033661;28;20052;-80
2021/06/15 18:53:29;;;;;;;3.58;2.25;;;40.70;41.30;;;;;;12037771;27;20047;-80
2021/06/15 18:59:16;;;;;;;2.40;1.95;;;40.30;41.50;;;;;;12042748;28;20685;-79
2021/06/15 19:05:04;;;;;;;7.90;6.43;;;39.80;41.50;;;;;;12036752;28;20055;-78
2021/06/15 19:10:52;;;;;;;2.50;2.17;;;38.90;42.00;;;;;;12027795;28;20057;-80
2021/06/15 19:16:39;;;;;;;5.07;2.45;;;38.00;44.70;;;;;;12028036;28;20056;-80
2021/06/15 19:22:26;;;;;;;3.17;2.22;;;36.60;47.40;;;;;;12027459;28;20044;-79
2021/06/15 19:28:15;;;;;;;3.40;2.10;;;34.80;49.80;;;;;;12027181;28;20053;-79
2021/06/15 19:34:02;;;;;;;6.40;1.90;;;33.60;52.50;;;;;;12030395;28;20049;-80
2021/06/15 19:39:48;;;;;;;3.60;2.20;;;32.60;53.70;;;;;;12034263;28;20059;-80
2021/06/15 19:45:37;;;;;;;5.78;2.30;;;31.90;55.50;;;;;;12018893;28;20056;-80
2021/06/15 19:51:23;;;;;;;5.90;4.47;;;31.40;56.90;;;;;;12015940;28;20545;-80
2021/06/15 19:57:11;;;;;;;2.92;2.22;;;31.10;57.80;;;;;;12012086;28;20118;-80
2021/06/15 20:03:01;;;;;;;3.72;2.30;;;30.80;58.30;;;;;;12021642;28;20049;-80
2021/06/15 20:08:48;;;;;;;5.15;2.60;;;30.50;58.60;;;;;;12024286;28;20438;-81
2021/06/15 20:14:35;;;;;;;9.57;2.83;;;30.30;59.30;;;;;;12033485;28;20049;-80
2021/06/15 20:20:24;;;;;;;4.80;2.63;;;30.10;59.40;;;;;;12041393;28;20053;-80
2021/06/15 20:26:11;;;;;;;2.63;2.35;;;29.90;60.40;;;;;;12028698;28;20845;-78
2021/06/15 20:32:01;;;;;;;4.97;2.63;;;29.70;60.70;;;;;;12030496;28;20430;-81
2021/06/15 20:37:49;;;;;;;5.63;2.60;;;29.50;61.30;;;;;;12025538;28;20055;-79
2021/06/15 20:43:36;;;;;;;3.63;2.60;;;29.40;62.00;;;;;;12027391;28;20049;-80
2021/06/15 20:49:23;;;;;;;3.65;2.30;;;29.30;62.40;;;;;;12028952;28;20048;-83
2021/06/15 20:55:13;;;;;;;3.83;2.33;;;29.20;62.50;;;;;;12025820;28;20053;-80
2021/06/15 21:01:00;;;;;;;4.80;3.15;;;29.00;63.20;;;;;;12027778;28;20534;-81
2021/06/15 21:06:47;;;;;;;2.95;2.40;;;28.80;63.70;;;;;;12031650;28;20499;-81
2021/06/15 21:12:35;;;;;;;3.67;2.72;;;28.80;64.30;;;;;;12038400;28;20110;-81
2021/06/15 21:18:22;;;;;;;10.55;3.00;;;28.70;64.50;;;;;;12035257;28;20098;-81
2021/06/15 21:24:09;;;;;;;3.25;2.80;;;28.70;65.00;;;;;;12040223;27;20427;-81
2021/06/15 21:29:59;;;;;;;8.05;3.13;;;28.70;65.30;;;;;;12035707;28;20111;-80
2021/06/15 21:35:48;;;;;;;6.28;3.03;;;28.60;65.60;;;;;;12019690;27;20044;-79
2021/06/15 21:41:36;;;;;;;9.05;3.42;;;28.60;65.70;;;;;;12028803;28;20053;-78
2021/06/15 21:47:24;;;;;;;3.60;3.08;;;28.50;65.70;;;;;;12008961;28;20573;-78
2021/06/15 21:53:11;;;;;;;5.40;3.38;;;28.40;66.20;;;;;;12007432;28;20514;-78
2021/06/15 21:58:58;;;;;;;5.93;3.28;;;28.40;66.70;;;;;;12014963;28;20105;-78
2021/06/15 22:04:46;;;;;;;6.38;3.30;;;28.30;67.00;;;;;;12008540;28;20049;-78
2021/06/15 22:10:33;;;;;;;6.20;3.65;;;28.30;67.50;;;;;;12007503;28;20091;-78
2021/06/15 22:16:20;;;;;;;9.20;3.67;;;28.20;67.70;;;;;;12012853;28;20053;-79
2021/06/15 22:22:08;;;;;;;5.15;3.47;;;28.20;67.80;;;;;;12009812;28;20067;-79
2021/06/15 22:27:59;;;;;;;5.60;3.90;;;28.10;68.20;;;;;;12026933;28;20055;-81
2021/06/15 22:33:46;;;;;;;8.52;3.55;;;28.00;68.60;;;;;;12014953;28;20044;-80
2021/06/15 22:39:35;;;;;;;6.50;4.00;;;28.00;68.70;;;;;;12022104;28;20041;-80
2021/06/15 22:45:22;;;;;;;4.93;3.50;;;27.80;69.20;;;;;;12011556;28;24125;-80
2021/06/15 22:51:09;;;;;;;9.85;3.92;;;27.70;69.90;;;;;;12008543;28;20057;-80
2021/06/15 22:56:57;;;;;;;8.63;4.10;;;27.80;69.40;;;;;;12001881;28;20067;-80
2021/06/15 23:02:44;;;;;;;5.70;3.75;;;27.90;69.70;;;;;;12027603;28;20056;-79
2021/06/15 23:08:31;;;;;;;6.63;4.60;;;27.70;69.60;;;;;;12012633;28;20761;-79
2021/06/15 23:14:20;;;;;;;8.93;4.50;;;27.60;70.00;;;;;;12019313;28;20056;-80
2021/06/15 23:20:09;;;;;;;10.50;4.82;;;27.60;70.20;;;;;;12020700;28;20056;-79
2021/06/15 23:25:56;;;;;;;7.82;4.40;;;27.60;70.20;;;;;;12022968;28;20148;-79
2021/06/15 23:31:44;;;;;;;8.00;4.78;;;27.60;70.40;;;;;;12013227;28;20045;-79
2021/06/15 23:37:31;;;;;;;12.65;4.50;;;27.50;71.40;;;;;;12027376;28;20545;-79
2021/06/15 23:43:18;;;;;;;8.80;5.00;;;27.40;70.70;;;;;;12020057;28;20527;-79
2021/06/15 23:49:06;;;;;;;5.07;4.55;;;27.40;71.40;;;;;;11982291;28;20056;-79
2021/06/15 23:54:53;;;;;;;8.30;5.32;;;27.30;71.20;;;;;;11972787;28;20052;-80
